createdAt,value
2019-02-20T00:01:26.843Z,8.03
2019-02-20T00:03:55.827Z,7.83
2019-02-20T00:06:24.701Z,6.50
2019-02-20T00:08:53.669Z,5.17
2019-02-20T00:11:22.722Z,7.23
2019-02-20T00:13:51.695Z,8.73
2019-02-20T00:16:20.751Z,6.90
2019-02-20T00:18:49.804Z,8.90
2019-02-20T00:21:18.883Z,6.20
2019-02-20T00:23:47.791Z,8.50
2019-02-20T00:26:16.721Z,8.60
2019-02-20T00:28:45.786Z,7.33
2019-02-20T00:31:14.922Z,7.40
2019-02-20T00:33:43.896Z,9.80
2019-02-20T00:36:12.878Z,8.93
2019-02-20T00:38:41.884Z,8.67
2019-02-20T00:41:10.932Z,9.80
2019-02-20T00:43:41.583Z,7.43
2019-02-20T00:46:18.663Z,7.50
2019-02-20T00:48:52.633Z,7.87
2019-02-20T00:51:35.142Z,7.57
2019-02-20T00:54:05.487Z,5.80
2019-02-20T00:56:34.545Z,9.40
2019-02-20T00:59:03.590Z,7.57
2019-02-20T01:01:32.643Z,10.60
2019-02-20T01:04:02.166Z,7.93
2019-02-20T01:06:31.129Z,7.67
2019-02-20T01:09:00.193Z,9.27
2019-02-20T01:11:29.259Z,6.33
2019-02-20T01:13:58.381Z,8.93
2019-02-20T01:16:27.517Z,7.23
2019-02-20T01:18:56.483Z,8.47
2019-02-20T01:21:25.555Z,8.73
2019-02-20T01:23:54.623Z,10.10
2019-02-20T01:26:23.666Z,6.70
2019-02-20T01:28:52.652Z,6.87
2019-02-20T01:31:21.630Z,7.40
2019-02-20T01:33:50.711Z,9.47
2019-02-20T01:36:19.761Z,9.33
2019-02-20T01:38:48.819Z,8.13
2019-02-20T01:41:17.863Z,9.40
2019-02-20T01:43:46.978Z,8.83
2019-02-20T01:46:16.042Z,7.57
2019-02-20T01:48:45.124Z,8.00
2019-02-20T01:51:14.111Z,8.97
2019-02-20T01:53:43.186Z,9.20
2019-02-20T01:56:12.267Z,8.20
2019-02-20T01:58:41.271Z,10.50
2019-02-20T02:01:10.385Z,9.07
2019-02-20T02:03:39.284Z,7.17
2019-02-20T02:06:08.421Z,7.43
2019-02-20T02:08:37.442Z,7.83
2019-02-20T02:11:06.504Z,10.47
2019-02-20T02:13:35.519Z,8.10
2019-02-20T02:16:04.663Z,11.83
2019-02-20T02:18:33.756Z,9.67
2019-02-20T02:21:02.771Z,10.67
2019-02-20T02:23:31.835Z,10.13
2019-02-20T02:26:00.837Z,10.97
2019-02-20T02:28:29.960Z,9.83
2019-02-20T02:30:58.959Z,9.53
2019-02-20T02:33:28.035Z,11.37
2019-02-20T02:35:57.116Z,10.10
2019-02-20T02:38:26.073Z,10.23
2019-02-20T02:40:55.115Z,10.50
2019-02-20T02:43:24.098Z,11.93
2019-02-20T02:45:53.056Z,10.03
2019-02-20T02:48:22.107Z,10.00
2019-02-20T02:50:51.276Z,9.40
2019-02-20T02:53:30.014Z,7.17
2019-02-20T02:55:51.204Z,10.17
2019-02-20T02:58:20.275Z,9.10
2019-02-20T03:00:49.265Z,11.93
2019-02-20T03:03:18.222Z,10.33
2019-02-20T03:05:47.297Z,9.63
2019-02-20T03:08:16.245Z,9.83
2019-02-20T03:10:45.285Z,12.33
2019-02-20T03:13:14.319Z,10.20
2019-02-20T03:15:43.367Z,9.40
2019-02-20T03:18:12.458Z,10.63
2019-02-20T03:20:41.496Z,8.67
2019-02-20T03:23:10.487Z,13.00
2019-02-20T03:25:39.551Z,9.83
2019-02-20T03:28:08.663Z,10.33
2019-02-20T03:30:37.601Z,13.80
2019-02-20T03:33:06.650Z,13.23
2019-02-20T03:35:35.719Z,11.10
2019-02-20T03:38:04.736Z,11.27
2019-02-20T03:40:33.812Z,9.77
2019-02-20T03:43:02.831Z,7.67
2019-02-20T03:45:31.760Z,11.30
2019-02-20T03:48:00.875Z,9.43
2019-02-20T03:50:29.896Z,13.50
2019-02-20T03:52:58.890Z,10.33
2019-02-20T03:55:28.006Z,12.10
2019-02-20T03:57:57.038Z,9.37
2019-02-20T04:00:25.999Z,9.93
2019-02-20T04:02:55.084Z,11.70
2019-02-20T04:05:24.054Z,8.37
2019-02-20T04:07:53.109Z,11.03
2019-02-20T04:10:22.103Z,9.83
2019-02-20T04:12:51.003Z,8.17
2019-02-20T04:15:20.057Z,9.30
2019-02-20T04:17:49.155Z,9.57
2019-02-20T04:20:18.203Z,9.73
2019-02-20T04:22:47.205Z,8.10
2019-02-20T04:25:16.268Z,9.23
2019-02-20T04:27:45.250Z,10.13
2019-02-20T04:30:14.495Z,8.63
2019-02-20T04:32:43.595Z,9.27
2019-02-20T04:35:12.603Z,8.83
2019-02-20T04:37:41.683Z,10.57
2019-02-20T04:40:10.777Z,9.97
2019-02-20T04:42:39.755Z,11.07
2019-02-20T04:45:08.866Z,10.37
2019-02-20T04:47:37.978Z,8.60
2019-02-20T04:50:08.119Z,7.77
2019-02-20T04:52:37.097Z,9.20
2019-02-20T04:55:06.275Z,8.43
2019-02-20T04:57:35.415Z,8.23
2019-02-20T05:00:05.302Z,8.20
2019-02-20T05:02:34.602Z,6.77
2019-02-20T05:05:03.686Z,10.47
2019-02-20T05:07:32.733Z,9.57
2019-02-20T05:10:01.781Z,9.90
2019-02-20T05:12:30.784Z,8.80
2019-02-20T05:14:59.775Z,9.73
2019-02-20T05:17:28.830Z,12.00
2019-02-20T05:19:57.826Z,10.67
2019-02-20T05:22:26.949Z,13.70
2019-02-20T05:24:56.058Z,13.00
2019-02-20T05:27:25.120Z,14.47
2019-02-20T05:29:54.209Z,11.43
2019-02-20T05:32:23.275Z,13.03
2019-02-20T05:34:52.375Z,13.23
2019-02-20T05:37:21.385Z,13.00
2019-02-20T05:39:50.388Z,12.27
2019-02-20T05:42:19.375Z,12.83
2019-02-20T05:44:48.457Z,12.67
2019-02-20T05:47:17.517Z,12.30
2019-02-20T05:49:46.499Z,13.97
2019-02-20T05:52:15.552Z,12.53
2019-02-20T05:54:44.531Z,12.17
2019-02-20T05:57:13.657Z,14.93
2019-02-20T05:59:42.748Z,13.43
2019-02-20T06:02:11.736Z,14.87
2019-02-20T06:04:40.900Z,10.17
2019-02-20T06:07:09.974Z,10.00
2019-02-20T06:09:38.961Z,11.07
2019-02-20T06:12:08.139Z,10.83
2019-02-20T06:14:37.163Z,10.43
2019-02-20T06:17:06.266Z,9.27
2019-02-20T06:19:35.283Z,10.47
2019-02-20T06:22:04.297Z,9.30
2019-02-20T06:24:33.371Z,7.63
2019-02-20T06:27:02.439Z,11.13
2019-02-20T06:29:31.511Z,8.83
2019-02-20T06:32:00.653Z,11.43
2019-02-20T06:34:29.611Z,8.63
2019-02-20T06:36:58.647Z,12.00
2019-02-20T06:39:27.656Z,7.73
2019-02-20T06:41:56.748Z,10.27
2019-02-20T06:44:25.827Z,10.20
2019-02-20T06:46:54.867Z,9.60
2019-02-20T06:49:23.807Z,9.47
2019-02-20T06:51:52.859Z,10.60
2019-02-20T06:54:21.960Z,8.07
2019-02-20T06:56:50.975Z,7.00
2019-02-20T06:59:19.972Z,7.70
2019-02-20T07:01:49.007Z,8.70
2019-02-20T07:04:17.927Z,9.00
2019-02-20T07:07:09.433Z,7.87
2019-02-20T07:09:51.247Z,8.20
2019-02-20T07:13:00.469Z,11.20
2019-02-20T07:16:03.539Z,9.90
2019-02-20T07:18:53.763Z,8.70
2019-02-20T07:21:49.033Z,8.37
2019-02-20T07:24:32.700Z,11.27
2019-02-20T07:27:28.235Z,10.17
2019-02-20T07:30:05.140Z,7.97
2019-02-20T07:32:34.302Z,10.10
2019-02-20T07:35:03.970Z,10.67
2019-02-20T07:37:33.035Z,5.90
2019-02-20T07:40:02.124Z,6.03
2019-02-20T07:42:31.036Z,7.03
2019-02-20T07:45:00.097Z,8.90
2019-02-20T07:47:29.167Z,9.27
2019-02-20T07:49:58.170Z,6.90
2019-02-20T07:52:27.164Z,8.37
2019-02-20T07:54:56.165Z,8.60
2019-02-20T07:57:25.172Z,7.17
2019-02-20T07:59:54.261Z,9.83
2019-02-20T08:02:23.269Z,7.47
2019-02-20T08:04:52.372Z,10.47
2019-02-20T08:07:21.446Z,9.37
2019-02-20T08:09:51.054Z,9.73
2019-02-20T08:12:20.198Z,9.77
2019-02-20T08:14:49.552Z,10.00
2019-02-20T08:17:18.608Z,10.77
2019-02-20T08:19:47.966Z,9.60
2019-02-20T08:22:17.042Z,8.53
2019-02-20T08:24:46.005Z,10.53
2019-02-20T08:27:15.099Z,10.03
2019-02-20T08:29:44.280Z,11.90
2019-02-20T08:32:13.344Z,10.80
2019-02-20T08:34:42.319Z,10.27
2019-02-20T08:37:11.383Z,8.40
2019-02-20T08:39:40.447Z,9.27
2019-02-20T08:42:09.499Z,8.60
2019-02-20T08:44:38.479Z,9.97
2019-02-20T08:47:07.599Z,9.43
2019-02-20T08:49:36.671Z,11.83
2019-02-20T08:52:05.839Z,9.40
2019-02-20T08:54:34.855Z,11.43
2019-02-20T08:57:04.019Z,8.53
2019-02-20T08:59:33.051Z,9.93
2019-02-20T09:02:02.108Z,8.73
2019-02-20T09:04:31.163Z,10.70
2019-02-20T09:07:00.996Z,9.43
2019-02-20T09:09:29.916Z,8.17
2019-02-20T09:11:59.307Z,8.40
2019-02-20T09:14:28.327Z,7.33
2019-02-20T09:16:57.391Z,10.63
2019-02-20T09:19:26.774Z,8.07
2019-02-20T09:21:55.758Z,8.87
2019-02-20T09:24:24.785Z,10.00
2019-02-20T09:26:53.757Z,8.97
2019-02-20T09:29:22.748Z,9.80
2019-02-20T09:31:51.910Z,10.30
2019-02-20T09:34:20.923Z,12.10
2019-02-20T09:36:49.895Z,8.63
2019-02-20T09:39:36.468Z,10.50
2019-02-20T09:42:07.870Z,7.43
2019-02-20T09:44:40.287Z,8.63
2019-02-20T09:47:09.927Z,10.83
2019-02-20T09:49:38.985Z,7.70
2019-02-20T09:52:08.055Z,8.50
2019-02-20T09:54:37.146Z,6.67
2019-02-20T09:57:06.164Z,9.77
2019-02-20T09:59:35.263Z,7.73
2019-02-20T10:02:04.450Z,8.37
2019-02-20T10:04:33.479Z,7.27
2019-02-20T10:07:02.584Z,8.17
2019-02-20T10:09:31.699Z,8.43
2019-02-20T10:12:00.714Z,8.30
2019-02-20T10:14:30.444Z,7.40
2019-02-20T10:16:59.629Z,9.30
2019-02-20T10:19:28.718Z,8.63
2019-02-20T10:21:57.771Z,8.47
2019-02-20T10:24:27.027Z,10.13
2019-02-20T10:27:00.661Z,8.60
2019-02-20T10:29:26.870Z,9.27
2019-02-20T10:31:55.903Z,9.73
2019-02-20T10:34:24.946Z,9.60
2019-02-20T10:36:54.003Z,7.33
2019-02-20T10:39:22.993Z,10.87
2019-02-20T10:41:52.477Z,10.23
2019-02-20T10:44:21.575Z,11.30
2019-02-20T10:46:50.584Z,10.33
2019-02-20T10:49:19.597Z,10.73
2019-02-20T10:51:49.391Z,9.70
2019-02-20T10:54:18.518Z,10.60
2019-02-20T10:56:47.613Z,10.13
2019-02-20T10:59:16.632Z,10.73
2019-02-20T11:01:45.834Z,9.77
2019-02-20T11:04:14.915Z,8.13
2019-02-20T11:06:44.041Z,10.83
2019-02-20T11:09:12.975Z,12.07
2019-02-20T11:11:41.937Z,11.13
2019-02-20T11:14:10.948Z,10.87
2019-02-20T11:16:40.037Z,12.73
2019-02-20T11:19:09.099Z,11.03
2019-02-20T11:21:38.689Z,12.23
2019-02-20T11:24:07.839Z,11.53
2019-02-20T11:26:43.525Z,8.37
2019-02-20T11:29:07.650Z,12.27
2019-02-20T11:31:36.743Z,11.33
2019-02-20T11:34:05.810Z,8.20
2019-02-20T11:36:34.861Z,11.00
2019-02-20T11:39:05.272Z,7.37
2019-02-20T11:41:34.284Z,9.17
2019-02-20T11:44:03.368Z,10.73
2019-02-20T11:46:32.459Z,10.00
2019-02-20T11:49:01.512Z,8.07
2019-02-20T11:51:31.063Z,11.83
2019-02-20T11:54:00.280Z,9.37
2019-02-20T11:56:29.347Z,10.33
2019-02-20T11:58:58.628Z,9.50
2019-02-20T12:01:27.860Z,10.00
2019-02-20T12:03:57.520Z,10.00
2019-02-20T12:06:26.793Z,9.07
2019-02-20T12:08:55.884Z,7.77
2019-02-20T12:11:25.280Z,9.63
2019-02-20T12:13:54.443Z,11.43
2019-02-20T12:16:23.691Z,10.60
2019-02-20T12:18:52.743Z,11.97
2019-02-20T12:21:22.125Z,7.20
2019-02-20T12:23:51.283Z,9.47
2019-02-20T12:26:20.684Z,9.83
2019-02-20T12:28:49.734Z,10.17
2019-02-20T12:31:19.140Z,8.20
2019-02-20T12:33:48.152Z,9.23
2019-02-20T12:36:17.207Z,9.57
2019-02-20T12:38:46.680Z,9.90
2019-02-20T12:41:15.693Z,9.93
2019-02-20T12:43:45.177Z,7.87
2019-02-20T12:46:14.348Z,7.30
2019-02-20T12:48:43.448Z,7.67
2019-02-20T12:51:12.837Z,12.17
2019-02-20T12:53:43.603Z,9.50
2019-02-20T12:56:12.815Z,9.30
2019-02-20T12:58:41.939Z,10.13
2019-02-20T13:01:11.431Z,9.97
2019-02-20T13:03:40.523Z,7.80
2019-02-20T13:06:09.985Z,8.67
2019-02-20T17:22:51.005Z,3.33
2019-02-20T17:25:20.437Z,3.47
2019-02-20T17:27:49.565Z,3.80
2019-02-20T17:30:18.759Z,3.87
2019-02-20T17:32:48.458Z,4.30
2019-02-20T17:35:17.551Z,4.27
2019-02-20T17:37:46.564Z,4.27
2019-02-20T17:40:16.844Z,3.37
2019-02-20T17:42:46.040Z,4.87
2019-02-20T17:45:15.159Z,4.57
2019-02-20T17:47:44.684Z,4.27
2019-02-20T17:50:14.867Z,4.77
2019-02-20T17:52:43.976Z,4.90
2019-02-20T17:55:13.073Z,4.43
2019-02-20T17:57:42.252Z,4.77
2019-02-20T18:00:12.311Z,4.80
2019-02-20T18:02:41.372Z,4.43
2019-02-20T18:05:10.545Z,5.77
2019-02-20T18:07:48.361Z,4.13
2019-02-20T18:10:10.708Z,5.13
2019-02-20T18:12:39.817Z,5.03
2019-02-20T18:15:08.993Z,5.10
2019-02-20T18:17:38.046Z,4.43
2019-02-20T18:20:07.484Z,4.67
2019-02-20T18:22:36.637Z,5.17
2019-02-20T18:25:05.756Z,4.03
2019-02-20T18:27:34.829Z,4.97
2019-02-20T18:30:05.152Z,5.40
2019-02-20T18:32:34.163Z,5.43
2019-02-20T18:35:03.372Z,6.13
2019-02-20T18:37:32.467Z,6.13
2019-02-20T18:40:01.519Z,6.10
2019-02-20T18:42:30.617Z,5.83
2019-02-20T18:44:59.713Z,6.07
2019-02-20T18:47:28.772Z,6.93
2019-02-20T18:49:57.840Z,6.33
2019-02-20T18:52:26.910Z,6.23
2019-02-20T18:55:05.353Z,4.87
2019-02-20T18:57:26.752Z,5.67
2019-02-20T18:59:55.770Z,5.20
2019-02-20T19:02:24.931Z,5.77
2019-02-20T19:04:53.965Z,3.43
2019-02-20T19:07:23.056Z,5.50
2019-02-20T19:09:52.181Z,5.83
2019-02-20T19:12:49.268Z,4.87
2019-02-20T19:15:50.535Z,4.07
2019-02-20T19:19:02.399Z,5.67
2019-02-20T19:21:36.936Z,5.33
2019-02-20T19:25:08.580Z,5.73
2019-02-20T19:28:04.438Z,5.83
2019-02-20T19:30:55.742Z,5.63
2019-02-20T19:34:07.981Z,5.20
2019-02-20T19:37:29.193Z,6.50
2019-02-20T19:40:08.215Z,7.20
2019-02-20T19:43:14.063Z,6.57
2019-02-20T19:46:18.364Z,6.67
2019-02-20T19:49:10.505Z,7.07
2019-02-20T19:52:03.619Z,7.57
2019-02-20T19:54:38.027Z,5.50
2019-02-20T19:58:15.395Z,4.60
2019-02-20T20:01:16.556Z,6.00
2019-02-20T20:04:03.095Z,5.63
2019-02-20T20:07:02.730Z,5.73
2019-02-20T20:09:41.712Z,6.10
2019-02-20T20:12:42.109Z,6.67
2019-02-20T20:15:47.023Z,5.87
2019-02-20T20:18:58.706Z,4.87
2019-02-20T20:22:17.321Z,4.47
2019-02-20T20:24:57.753Z,5.50
2019-02-20T20:28:13.947Z,4.40
2019-02-20T20:31:23.817Z,4.53
2019-02-20T20:34:34.820Z,4.33
2019-02-20T20:37:30.161Z,5.53
2019-02-20T20:40:32.812Z,5.60
2019-02-20T20:43:36.552Z,3.97
2019-02-20T20:46:30.836Z,5.17
2019-02-20T20:49:59.177Z,5.00
2019-02-20T20:53:03.142Z,5.03
2019-02-20T20:56:22.409Z,4.77
2019-02-20T20:59:17.946Z,4.93
2019-02-20T21:02:10.596Z,4.97
2019-02-20T21:05:26.403Z,4.73
2019-02-20T21:08:14.580Z,3.63
2019-02-20T21:11:20.408Z,5.87
2019-02-20T21:14:13.748Z,5.53
2019-02-20T21:17:51.456Z,5.10
2019-02-20T21:21:00.915Z,4.07
2019-02-20T21:23:52.417Z,4.47
2019-02-20T21:27:02.348Z,4.60
2019-02-20T21:30:32.420Z,4.73
2019-02-20T21:33:34.686Z,4.20
2019-02-20T21:36:48.095Z,4.20
2019-02-20T21:39:53.582Z,3.90
2019-02-20T21:42:53.705Z,4.17
2019-02-20T21:46:13.317Z,5.37
2019-02-20T21:49:15.431Z,6.30
2019-02-20T21:52:13.693Z,5.30
2019-02-20T21:55:17.676Z,4.07
2019-02-20T21:58:18.601Z,6.07
2019-02-20T22:01:13.887Z,5.20
2019-02-20T22:04:10.179Z,5.87
2019-02-20T22:07:50.788Z,6.63
2019-02-20T22:10:45.615Z,7.63
2019-02-20T22:13:48.954Z,8.87
2019-02-20T22:16:45.051Z,9.03
2019-02-20T22:19:39.140Z,9.27
2019-02-20T22:22:31.110Z,9.57
2019-02-20T22:25:43.354Z,11.80
2019-02-20T22:29:08.713Z,9.53
2019-02-20T22:32:17.467Z,11.67
2019-02-20T22:35:15.360Z,10.80
2019-02-20T22:38:15.027Z,8.57
2019-02-20T22:41:21.303Z,9.93
2019-02-20T22:44:43.384Z,10.13
2019-02-20T22:47:42.019Z,10.77
2019-02-20T22:50:43.679Z,12.23
2019-02-20T22:53:22.670Z,8.57
2019-02-20T22:56:22.929Z,9.03
2019-02-20T22:59:41.133Z,10.90
2019-02-20T23:02:26.214Z,9.33
2019-02-20T23:05:19.979Z,10.07
2019-02-20T23:08:02.707Z,10.97
2019-02-20T23:11:02.444Z,9.47
2019-02-20T23:14:09.408Z,10.60
2019-02-20T23:16:38.435Z,9.07
2019-02-20T23:19:07.471Z,11.23
2019-02-20T23:21:36.557Z,9.07
2019-02-20T23:24:05.628Z,8.53
2019-02-20T23:26:34.718Z,10.93
2019-02-20T23:29:03.818Z,11.40
2019-02-20T23:31:32.930Z,10.20
2019-02-20T23:34:02.063Z,13.20
2019-02-20T23:36:31.152Z,7.67
2019-02-20T23:39:00.196Z,11.00
2019-02-20T23:41:29.275Z,10.93
2019-02-20T23:43:58.303Z,9.30
2019-02-20T23:46:27.321Z,8.03
2019-02-20T23:48:56.430Z,13.00
2019-02-20T23:51:25.370Z,9.70
2019-02-20T23:53:54.357Z,10.77
2019-02-20T23:56:23.424Z,11.57
2019-02-20T23:58:52.443Z,11.00
